createdAt,value
2022-12-16T00:01:35.031Z,7.07
2022-12-16T00:04:02.162Z,7.12
2022-12-16T00:06:34.219Z,7.10
2022-12-16T00:09:01.324Z,7.17
2022-12-16T00:11:29.151Z,7.20
2022-12-16T00:13:55.963Z,7.29
2022-12-16T00:16:22.840Z,7.45
2022-12-16T00:18:51.785Z,7.44
2022-12-16T00:21:19.734Z,7.55
2022-12-16T00:23:47.482Z,7.46
2022-12-16T00:26:14.375Z,7.30
2022-12-16T00:28:42.597Z,7.37
2022-12-16T00:31:09.458Z,7.22
2022-12-16T00:33:36.764Z,7.29
2022-12-16T00:36:03.945Z,7.33
2022-12-16T00:38:30.924Z,7.24
2022-12-16T00:40:57.774Z,7.43
2022-12-16T00:43:24.800Z,7.51
2022-12-16T00:45:51.982Z,7.62
2022-12-16T00:48:23.152Z,7.62
2022-12-16T00:50:55.558Z,7.69
2022-12-16T00:53:24.358Z,7.78
2022-12-16T00:55:52.967Z,7.70
2022-12-16T00:58:20.590Z,7.86
2022-12-16T01:00:47.475Z,7.79
2022-12-16T01:03:19.429Z,7.84
2022-12-16T01:05:48.451Z,7.85
2022-12-16T01:08:15.580Z,7.72
2022-12-16T01:10:42.388Z,7.92
2022-12-16T01:13:09.282Z,7.88
2022-12-16T01:15:37.735Z,7.79
2022-12-16T01:18:05.049Z,7.63
2022-12-16T01:20:33.428Z,7.74
2022-12-16T01:23:00.848Z,7.67
2022-12-16T01:25:28.066Z,7.71
2022-12-16T01:27:54.949Z,7.58
2022-12-16T01:30:23.802Z,7.43
2022-12-16T01:32:50.912Z,7.35
2022-12-16T01:35:51.296Z,7.26
2022-12-16T01:38:05.864Z,7.08
2022-12-16T01:40:32.685Z,7.14
2022-12-16T01:42:59.525Z,7.18
2022-12-16T01:45:35.303Z,7.12
2022-12-16T01:48:16.942Z,7.29
2022-12-16T01:50:44.182Z,7.46
2022-12-16T01:53:11.114Z,7.68
2022-12-16T01:55:45.637Z,7.75
2022-12-16T02:01:33.387Z,7.87
2022-12-16T02:04:03.085Z,7.82
2022-12-16T02:06:33.373Z,7.82
2022-12-16T02:09:06.342Z,7.74
2022-12-16T02:11:51.823Z,7.84
2022-12-16T02:14:24.992Z,7.95
2022-12-16T02:16:52.143Z,7.94
2022-12-16T02:19:49.951Z,7.83
2022-12-16T02:22:56.943Z,7.92
2022-12-16T02:25:43.521Z,7.79
2022-12-16T02:28:48.950Z,7.80
2022-12-16T02:31:41.057Z,7.66
2022-12-16T02:34:18.658Z,7.90
2022-12-16T02:37:11.479Z,7.79
2022-12-16T02:39:43.154Z,7.74
2022-12-16T02:42:24.863Z,7.70
2022-12-16T02:45:20.465Z,7.54
2022-12-16T02:47:47.351Z,7.59
2022-12-16T02:50:26.240Z,7.70
2022-12-16T02:52:54.983Z,7.67
2022-12-16T02:55:32.850Z,7.73
2022-12-16T02:58:02.707Z,7.25
2022-12-16T03:00:40.300Z,7.88
2022-12-16T03:03:19.418Z,7.94
2022-12-16T03:05:49.317Z,8.04
2022-12-16T03:08:23.920Z,8.07
2022-12-16T03:10:56.295Z,7.95
2022-12-16T03:13:24.106Z,8.15
2022-12-16T03:15:54.356Z,8.00
2022-12-16T03:18:22.445Z,7.83
2022-12-16T03:21:00.857Z,7.64
2022-12-16T03:23:36.654Z,7.43
2022-12-16T03:26:08.408Z,7.61
2022-12-16T03:28:38.173Z,7.36
2022-12-16T03:31:29.203Z,7.23
2022-12-16T03:34:10.812Z,7.58
2022-12-16T03:36:39.882Z,7.78
2022-12-16T03:39:08.209Z,7.83
2022-12-16T03:41:36.212Z,7.86
2022-12-16T03:44:03.496Z,7.84
2022-12-16T03:46:30.609Z,7.58
2022-12-16T03:48:57.759Z,7.83
2022-12-16T03:51:24.675Z,7.84
2022-12-16T03:53:51.497Z,7.83
2022-12-16T03:56:18.306Z,7.96
2022-12-16T03:58:47.008Z,7.98
2022-12-16T04:01:14.992Z,8.11
2022-12-16T04:03:41.990Z,8.13
2022-12-16T04:06:08.869Z,7.97
2022-12-16T04:08:35.762Z,8.12
2022-12-16T04:11:21.124Z,8.14
2022-12-16T04:14:06.649Z,8.08
2022-12-16T04:16:52.077Z,8.01
2022-12-16T04:19:45.469Z,7.86
2022-12-16T04:22:43.622Z,7.95
2022-12-16T04:25:18.109Z,7.77
2022-12-16T04:27:46.967Z,7.96
2022-12-16T04:30:19.413Z,8.05
2022-12-16T04:33:13.940Z,7.97
2022-12-16T04:35:59.441Z,7.97
2022-12-16T04:38:45.138Z,7.87
2022-12-16T04:41:31.902Z,7.67
2022-12-16T04:44:17.636Z,7.73
2022-12-16T04:47:03.626Z,7.77
2022-12-16T04:49:49.056Z,7.81
2022-12-16T04:52:35.201Z,7.97
2022-12-16T04:55:20.478Z,8.07
2022-12-16T04:58:09.580Z,8.11
2022-12-16T05:00:55.739Z,8.17
2022-12-16T05:03:41.900Z,8.13
2022-12-16T05:06:27.721Z,8.15
2022-12-16T05:09:13.173Z,8.10
2022-12-16T05:11:58.707Z,8.15
2022-12-16T05:14:44.074Z,8.08
2022-12-16T05:17:29.412Z,8.20
2022-12-16T05:20:15.218Z,7.95
2022-12-16T05:23:00.753Z,8.14
2022-12-16T05:25:46.505Z,7.95
2022-12-16T05:28:32.392Z,7.98
2022-12-16T05:31:17.706Z,7.99
2022-12-16T05:34:03.153Z,8.13
2022-12-16T05:36:49.066Z,8.24
2022-12-16T05:39:34.159Z,8.22
2022-12-16T05:42:19.593Z,8.18
2022-12-16T05:45:04.823Z,8.35
2022-12-16T05:47:50.335Z,8.30
2022-12-16T05:50:36.183Z,8.22
2022-12-16T05:53:28.428Z,8.30
2022-12-16T05:56:13.889Z,8.24
2022-12-16T05:58:59.650Z,8.34
2022-12-16T06:01:45.113Z,8.36
2022-12-16T06:04:30.776Z,8.44
2022-12-16T06:07:15.916Z,8.46
2022-12-16T06:10:01.407Z,8.47
2022-12-16T06:12:47.210Z,8.52
2022-12-16T06:15:32.597Z,8.44
2022-12-16T06:18:17.808Z,8.47
2022-12-16T06:21:03.212Z,8.51
2022-12-16T06:23:48.726Z,8.57
2022-12-16T06:26:34.263Z,8.50
2022-12-16T06:29:19.651Z,8.55
2022-12-16T06:32:05.199Z,8.67
2022-12-16T06:34:50.523Z,8.76
2022-12-16T06:37:35.914Z,8.74
2022-12-16T06:40:22.009Z,8.76
2022-12-16T06:43:07.503Z,8.66
2022-12-16T06:45:53.042Z,8.85
2022-12-16T06:48:38.525Z,8.80
2022-12-16T06:51:24.168Z,8.75
2022-12-16T06:54:09.637Z,8.64
2022-12-16T06:56:55.396Z,8.94
2022-12-16T06:59:41.187Z,8.92
2022-12-16T07:02:30.124Z,9.02
2022-12-16T07:05:15.661Z,8.98
2022-12-16T07:08:19.223Z,9.03
2022-12-16T07:11:16.075Z,8.94
2022-12-16T07:14:02.636Z,8.98
2022-12-16T07:16:48.318Z,8.93
2022-12-16T07:19:34.928Z,8.93
2022-12-16T07:22:20.606Z,8.96
2022-12-16T07:25:06.085Z,8.90
2022-12-16T07:27:51.452Z,9.06
2022-12-16T07:31:16.715Z,9.02
2022-12-16T07:34:02.039Z,9.32
2022-12-16T07:36:47.508Z,9.30
2022-12-16T07:39:32.752Z,9.34
2022-12-16T07:42:18.398Z,9.20
2022-12-16T07:45:04.360Z,9.24
2022-12-16T07:47:50.519Z,9.24
2022-12-16T07:50:36.725Z,9.18
2022-12-16T07:53:22.373Z,9.25
2022-12-16T07:56:07.692Z,9.33
2022-12-16T07:58:54.008Z,9.37
2022-12-16T08:01:40.963Z,9.37
2022-12-16T08:04:26.399Z,9.44
2022-12-16T08:07:11.858Z,9.45
2022-12-16T08:09:57.858Z,9.61
2022-12-16T08:12:43.215Z,9.58
2022-12-16T08:15:28.649Z,9.57
2022-12-16T08:18:21.544Z,9.59
2022-12-16T08:21:07.032Z,9.73
2022-12-16T08:23:52.412Z,9.80
2022-12-16T08:26:39.214Z,9.89
2022-12-16T08:29:43.824Z,10.16
2022-12-16T08:32:29.344Z,10.38
2022-12-16T08:35:14.835Z,10.34
2022-12-16T08:38:00.130Z,10.46
2022-12-16T08:40:45.593Z,9.41
2022-12-16T08:43:31.642Z,10.38
2022-12-16T08:46:17.271Z,10.35
2022-12-16T08:49:02.862Z,10.36
2022-12-16T08:51:48.672Z,10.51
2022-12-16T08:54:34.721Z,10.70
2022-12-16T09:01:39.465Z,10.70
2022-12-16T09:04:25.113Z,10.76
2022-12-16T09:07:10.727Z,10.81
2022-12-16T09:09:56.158Z,10.88
2022-12-16T09:12:41.795Z,11.02
2022-12-16T09:15:32.808Z,11.02
2022-12-16T09:18:18.299Z,11.11
2022-12-16T09:21:04.112Z,11.28
2022-12-16T09:23:49.939Z,11.24
2022-12-16T09:26:36.274Z,11.33
2022-12-16T09:29:22.044Z,11.51
2022-12-16T09:32:07.682Z,11.18
2022-12-16T09:34:54.292Z,11.34
2022-12-16T09:37:39.702Z,11.27
2022-12-16T09:40:25.954Z,11.36
2022-12-16T09:43:53.493Z,11.42
2022-12-16T09:46:42.156Z,11.63
2022-12-16T09:50:05.903Z,11.65
2022-12-16T09:52:59.257Z,11.57
2022-12-16T09:55:49.865Z,11.46
2022-12-16T09:58:38.077Z,11.27
2022-12-16T10:01:24.221Z,11.11
2022-12-16T10:04:09.742Z,11.28
2022-12-16T10:07:14.973Z,11.21
2022-12-16T10:10:27.198Z,11.33
2022-12-16T10:13:12.565Z,11.11
2022-12-16T10:16:01.257Z,11.28
2022-12-16T10:19:09.853Z,10.93
2022-12-16T10:22:13.701Z,11.08
2022-12-16T10:25:02.760Z,11.32
2022-12-16T10:28:01.536Z,11.27
2022-12-16T10:31:02.354Z,11.42
2022-12-16T10:33:49.203Z,11.33
2022-12-16T10:36:52.088Z,11.40
2022-12-16T10:39:50.223Z,11.15
2022-12-16T10:42:42.523Z,11.21
2022-12-16T10:45:55.280Z,11.17
2022-12-16T10:48:54.960Z,10.98
2022-12-16T10:51:46.468Z,11.22
2022-12-16T10:58:39.414Z,11.42
2022-12-16T11:01:44.023Z,11.45
2022-12-16T11:04:55.584Z,11.37
2022-12-16T11:07:58.839Z,11.33
2022-12-16T11:10:49.372Z,11.31
2022-12-16T11:13:43.299Z,11.38
2022-12-16T11:16:38.818Z,11.40
2022-12-16T11:19:37.112Z,11.51
2022-12-16T11:22:37.769Z,11.62
2022-12-16T11:40:32.498Z,11.58
2022-12-16T11:43:23.168Z,11.56
2022-12-16T11:46:10.877Z,11.69
2022-12-16T11:49:23.398Z,11.79
2022-12-16T11:52:36.311Z,11.80
2022-12-16T11:56:12.683Z,11.91
2022-12-16T11:59:21.776Z,11.89
2022-12-16T12:02:17.616Z,11.97
2022-12-16T12:05:03.044Z,11.89
2022-12-16T12:07:57.890Z,11.84
2022-12-16T12:11:06.114Z,11.90
2022-12-16T12:14:03.687Z,11.79
2022-12-16T12:16:52.055Z,11.97
2022-12-16T12:31:33.789Z,12.32
2022-12-16T12:34:38.079Z,12.53
2022-12-16T12:37:35.821Z,12.55
2022-12-16T12:40:40.111Z,12.47
2022-12-16T12:43:33.614Z,12.39
2022-12-16T12:46:33.271Z,12.53
2022-12-16T12:49:37.760Z,12.46
2022-12-16T12:52:46.446Z,12.24
2022-12-16T12:55:51.796Z,12.24
2022-12-16T12:58:37.353Z,12.34
2022-12-16T13:01:36.266Z,12.25
2022-12-16T13:04:25.465Z,12.25
2022-12-16T13:07:14.454Z,12.30
2022-12-16T13:09:59.909Z,12.30
2022-12-16T13:12:48.851Z,12.27
2022-12-16T13:25:49.616Z,12.23
2022-12-16T13:29:01.169Z,12.27
2022-12-16T13:31:48.842Z,12.19
2022-12-16T13:34:34.267Z,12.14
2022-12-16T13:37:27.070Z,12.16
2022-12-16T13:40:46.302Z,12.17
2022-12-16T13:43:57.845Z,12.08
2022-12-16T13:47:01.405Z,11.83
2022-12-16T13:49:54.191Z,11.93
2022-12-16T13:52:55.063Z,11.66
2022-12-16T13:55:56.832Z,11.71
2022-12-16T13:59:07.700Z,11.64
2022-12-16T14:02:16.995Z,11.72
2022-12-16T14:05:08.670Z,11.81
2022-12-16T14:07:58.537Z,11.82
2022-12-16T14:11:18.372Z,11.80
2022-12-16T14:14:24.339Z,11.66
2022-12-16T14:17:15.674Z,11.64
2022-12-16T14:20:43.003Z,11.67
2022-12-16T14:23:58.429Z,11.71
2022-12-16T14:26:46.098Z,11.68
2022-12-16T14:29:41.104Z,11.64
2022-12-16T14:32:59.616Z,11.63
2022-12-16T14:35:48.800Z,11.58
2022-12-16T14:38:49.931Z,11.64
2022-12-16T14:41:40.403Z,11.63
2022-12-16T14:44:36.278Z,11.56
2022-12-16T14:47:22.205Z,11.49
2022-12-16T14:50:11.401Z,11.37
2022-12-16T14:53:05.662Z,11.27
2022-12-16T14:55:54.734Z,11.30
2022-12-16T14:58:45.031Z,11.24
2022-12-16T15:01:40.120Z,11.03
2022-12-16T15:04:38.380Z,11.18
2022-12-16T15:10:34.078Z,11.20
2022-12-16T15:13:20.034Z,11.21
2022-12-16T15:16:07.762Z,11.11
2022-12-16T15:19:01.031Z,11.24
2022-12-16T15:19:15.660Z,11.23
2022-12-16T15:21:46.548Z,11.02
2022-12-16T15:27:56.769Z,10.90
2022-12-16T15:30:55.578Z,11.04
2022-12-16T15:33:44.526Z,10.90
2022-12-16T15:36:43.009Z,10.86
2022-12-16T15:39:40.315Z,10.99
2022-12-16T15:42:45.146Z,10.97
2022-12-16T15:45:42.770Z,10.94
2022-12-16T15:48:42.782Z,10.76
2022-12-16T15:51:49.831Z,10.58
2022-12-16T15:54:38.548Z,10.53
2022-12-16T15:57:53.424Z,10.43
2022-12-16T16:00:46.157Z,10.46
2022-12-16T16:03:44.602Z,10.34
2022-12-16T16:06:39.249Z,10.36
2022-12-16T16:09:39.333Z,10.27
2022-12-16T16:12:24.876Z,10.17
2022-12-16T16:15:10.459Z,10.11
2022-12-16T16:17:56.132Z,10.09
2022-12-16T16:20:41.968Z,10.17
2022-12-16T16:23:29.078Z,10.23
2022-12-16T16:26:14.945Z,10.22
2022-12-16T16:29:00.446Z,10.17
2022-12-16T16:31:46.735Z,10.16
2022-12-16T16:34:32.294Z,10.01
2022-12-16T16:37:28.350Z,10.18
2022-12-16T16:40:14.662Z,10.07
2022-12-16T16:43:00.091Z,10.20
2022-12-16T16:45:45.424Z,10.11
2022-12-16T16:48:33.786Z,10.06
2022-12-16T16:51:20.433Z,10.24
2022-12-16T16:54:06.051Z,10.08
2022-12-16T16:56:53.947Z,10.13
2022-12-16T16:59:43.144Z,10.21
2022-12-16T17:02:41.412Z,10.15
2022-12-16T17:05:28.886Z,10.11
2022-12-16T17:08:15.346Z,10.21
2022-12-16T17:11:01.545Z,10.09
2022-12-16T17:13:47.504Z,9.94
2022-12-16T17:16:33.535Z,10.03
2022-12-16T17:19:19.144Z,10.09
2022-12-16T17:22:04.845Z,10.14
2022-12-16T17:24:53.979Z,10.13
2022-12-16T17:27:45.735Z,10.06
2022-12-16T17:30:35.554Z,10.06
2022-12-16T17:33:21.829Z,9.97
2022-12-16T17:36:10.572Z,10.00
2022-12-16T17:38:58.052Z,9.94
2022-12-16T17:41:45.545Z,9.84
2022-12-16T17:44:34.636Z,9.77
2022-12-16T17:47:22.772Z,9.73
2022-12-16T17:50:08.565Z,9.63
2022-12-16T17:52:53.936Z,9.69
2022-12-16T17:55:39.477Z,9.62
2022-12-16T17:58:24.839Z,9.56
2022-12-16T18:01:11.384Z,9.56
2022-12-16T18:03:57.210Z,9.35
2022-12-16T18:06:42.979Z,9.44
2022-12-16T18:09:28.980Z,9.35
2022-12-16T18:12:14.409Z,9.43
2022-12-16T18:14:59.786Z,9.43
2022-12-16T18:17:45.220Z,9.45
2022-12-16T18:20:33.063Z,9.37
2022-12-16T18:23:18.976Z,9.34
2022-12-16T18:26:14.977Z,9.41
2022-12-16T18:29:00.485Z,9.48
2022-12-16T18:31:51.686Z,9.41
2022-12-16T18:34:37.740Z,9.37
2022-12-16T18:37:24.144Z,9.27
2022-12-16T18:40:10.099Z,9.34
2022-12-16T18:42:55.669Z,9.35
2022-12-16T18:45:41.486Z,9.40
2022-12-16T18:48:27.489Z,9.24
2022-12-16T18:51:17.971Z,9.30
2022-12-16T18:54:04.577Z,9.21
2022-12-16T18:56:50.316Z,9.00
2022-12-16T18:59:35.994Z,9.26
2022-12-16T19:02:21.971Z,9.13
2022-12-16T19:05:09.982Z,9.11
2022-12-16T19:07:55.428Z,9.12
2022-12-16T19:10:41.398Z,9.15
2022-12-16T19:13:34.012Z,9.15
2022-12-16T19:16:19.631Z,9.16
2022-12-16T19:19:05.257Z,8.96
2022-12-16T19:21:52.348Z,8.99
2022-12-16T19:24:42.255Z,9.01
2022-12-16T19:27:28.445Z,8.99
2022-12-16T19:30:14.522Z,8.99
2022-12-16T19:33:07.383Z,9.08
2022-12-16T19:35:53.623Z,9.13
2022-12-16T19:38:41.528Z,8.94
2022-12-16T19:41:34.068Z,8.80
2022-12-16T19:44:20.128Z,8.70
2022-12-16T19:47:26.572Z,8.78
2022-12-16T19:50:22.766Z,8.80
2022-12-16T19:53:08.085Z,8.84
2022-12-16T19:55:55.253Z,8.81
2022-12-16T19:58:41.998Z,8.89
2022-12-16T20:01:28.355Z,9.10
2022-12-16T20:04:15.187Z,9.14
2022-12-16T20:07:00.699Z,9.15
2022-12-16T20:09:46.140Z,9.22
2022-12-16T20:12:31.774Z,9.32
2022-12-16T20:15:25.011Z,9.41
2022-12-16T20:18:10.561Z,9.43
2022-12-16T20:21:03.014Z,9.48
2022-12-16T20:23:48.895Z,9.44
2022-12-16T20:26:34.458Z,9.52
2022-12-16T20:29:19.899Z,9.41
2022-12-16T20:32:05.291Z,9.31
2022-12-16T20:34:50.569Z,9.23
2022-12-16T20:37:37.647Z,9.16
2022-12-16T20:40:23.741Z,9.10
2022-12-16T20:43:09.095Z,9.00
2022-12-16T20:45:57.793Z,9.03
2022-12-16T20:48:43.142Z,8.96
2022-12-16T20:51:28.689Z,8.95
2022-12-16T20:54:13.999Z,8.87
2022-12-16T20:56:59.372Z,9.00
2022-12-16T20:59:47.236Z,9.01
2022-12-16T21:02:33.964Z,9.15
2022-12-16T21:05:20.294Z,9.27
2022-12-16T21:08:05.998Z,9.27
2022-12-16T21:10:51.801Z,9.42
2022-12-16T21:13:39.495Z,9.31
2022-12-16T21:16:25.950Z,9.26
2022-12-16T21:19:11.577Z,9.27
2022-12-16T21:21:57.147Z,9.36
2022-12-16T21:24:42.780Z,9.33
2022-12-16T21:27:28.451Z,9.47
2022-12-16T21:30:14.164Z,9.46
2022-12-16T21:32:59.985Z,9.61
2022-12-16T21:35:45.938Z,9.51
2022-12-16T21:38:34.416Z,9.49
2022-12-16T21:41:19.864Z,9.69
2022-12-16T21:44:10.003Z,9.48
2022-12-16T21:46:58.279Z,9.37
2022-12-16T21:49:43.702Z,9.42
2022-12-16T21:52:30.600Z,9.30
2022-12-16T21:55:17.602Z,9.37
2022-12-16T21:58:06.453Z,9.24
2022-12-16T22:00:58.890Z,9.49
2022-12-16T22:03:51.991Z,9.43
2022-12-16T22:09:48.686Z,9.55
2022-12-16T22:12:35.746Z,9.67
2022-12-16T22:15:21.551Z,9.69
2022-12-16T22:18:07.669Z,9.59
2022-12-16T22:20:56.075Z,9.67
2022-12-16T22:23:47.145Z,9.68
2022-12-16T22:26:32.952Z,9.75
2022-12-16T22:29:18.139Z,9.76
2022-12-16T22:32:03.520Z,9.69
2022-12-16T22:34:49.168Z,9.70
2022-12-16T22:37:34.536Z,9.66
2022-12-16T22:40:19.996Z,9.78
2022-12-16T22:43:06.830Z,9.74
2022-12-16T22:45:52.251Z,9.63
2022-12-16T22:48:37.782Z,9.63
2022-12-16T22:51:28.093Z,9.43
2022-12-16T22:54:13.038Z,9.56
2022-12-16T22:56:58.573Z,9.59
2022-12-16T22:59:43.854Z,9.51
2022-12-16T23:02:29.289Z,9.41
2022-12-16T23:05:14.406Z,9.51
2022-12-16T23:07:59.786Z,9.39
2022-12-16T23:10:45.212Z,9.42
2022-12-16T23:13:33.098Z,9.51
2022-12-16T23:16:18.194Z,9.48
2022-12-16T23:19:03.670Z,9.51
2022-12-16T23:21:49.088Z,9.38
2022-12-16T23:24:34.478Z,9.47
2022-12-16T23:27:19.877Z,9.39
2022-12-16T23:30:04.960Z,9.41
2022-12-16T23:32:50.328Z,9.42
2022-12-16T23:35:35.417Z,9.33
2022-12-16T23:38:21.895Z,9.37
2022-12-16T23:41:07.406Z,9.41
2022-12-16T23:43:52.477Z,9.48
2022-12-16T23:46:37.761Z,9.38
2022-12-16T23:49:23.209Z,9.47
2022-12-16T23:52:08.956Z,9.49
2022-12-16T23:54:54.913Z,9.39
2022-12-16T23:57:41.683Z,9.43
